Newtonville, New Jersey
Current Conditions -  °F | °C
As of 6:54 PM on Saturday 22 Nov 2014 (Local Time) from KACY Reporting Station
Overcast Overcast  
Wind Chill: 36°   Ceiling: 9000
Heat Index: 42°   Visibility: 10mi
Dew Point: 22°   Wind: 10mph
Humidity: 45%   Direction: 220°SW
Pressure: 30.31"   Gusts: NA
Location:  39.61°N, 74.8°W
Report Text: KACY 222354Z 22009KT 10SM FEW075 OVC090 06/M06 A3031 RMK AO2 SLP263 T00561056 10067 20050 58009
Loading
Personal Weather Stations






























Interactive Weather Map New forecast layout! Learn more

10-Day Weather Forecast

Advertisements
Track Severe Weather on mobile